sensor_id;sensor_type;location;lat;lon;timestamp;pressure;altitude;pressure_sealevel;temperature;humidity
45071;BME280;30836;48.906;9.140;2023-11-19T00:00:07;985.46;;;16.11;51.03
45071;BME280;30836;48.906;9.140;2023-11-19T00:01:08;985.44;;;16.13;51.08
45071;BME280;30836;48.906;9.140;2023-11-19T00:02:09;985.42;;;16.16;51.02
45071;BME280;30836;48.906;9.140;2023-11-19T00:03:10;985.36;;;16.17;51.15
45071;BME280;30836;48.906;9.140;2023-11-19T00:04:10;985.31;;;16.12;51.82
45071;BME280;30836;48.906;9.140;2023-11-19T00:05:10;985.31;;;16.07;51.65
45071;BME280;30836;48.906;9.140;2023-11-19T00:06:11;985.29;;;16.06;51.78
45071;BME280;30836;48.906;9.140;2023-11-19T00:07:11;985.25;;;16.02;52.37
45071;BME280;30836;48.906;9.140;2023-11-19T00:08:12;985.19;;;15.97;52.37
45071;BME280;30836;48.906;9.140;2023-11-19T00:09:12;985.17;;;15.95;52.51
45071;BME280;30836;48.906;9.140;2023-11-19T00:10:14;985.13;;;15.91;52.89
45071;BME280;30836;48.906;9.140;2023-11-19T00:11:15;985.09;;;15.79;53.97
45071;BME280;30836;48.906;9.140;2023-11-19T00:12:16;985.09;;;15.58;54.71
45071;BME280;30836;48.906;9.140;2023-11-19T00:13:16;985.13;;;15.40;55.34
45071;BME280;30836;48.906;9.140;2023-11-19T00:14:16;985.11;;;15.25;55.91
45071;BME280;30836;48.906;9.140;2023-11-19T00:15:17;985.07;;;15.13;56.32
45071;BME280;30836;48.906;9.140;2023-11-19T00:16:18;985.05;;;15.07;56.53
45071;BME280;30836;48.906;9.140;2023-11-19T00:17:18;985.01;;;15.02;56.83
45071;BME280;30836;48.906;9.140;2023-11-19T00:18:19;985.05;;;14.95;57.13
45071;BME280;30836;48.906;9.140;2023-11-19T00:19:19;985.03;;;14.92;57.10
45071;BME280;30836;48.906;9.140;2023-11-19T00:20:20;985.05;;;14.92;57.22
45071;BME280;30836;48.906;9.140;2023-11-19T00:21:21;985.05;;;14.92;57.39
45071;BME280;30836;48.906;9.140;2023-11-19T00:22:21;985.03;;;14.84;58.20
45071;BME280;30836;48.906;9.140;2023-11-19T00:23:21;985.03;;;14.76;58.09
45071;BME280;30836;48.906;9.140;2023-11-19T00:24:22;985.03;;;14.78;57.96
45071;BME280;30836;48.906;9.140;2023-11-19T00:25:22;985.05;;;14.78;58.06
45071;BME280;30836;48.906;9.140;2023-11-19T00:26:23;985.03;;;14.74;58.67
45071;BME280;30836;48.906;9.140;2023-11-19T00:27:23;985.03;;;14.68;58.47
45071;BME280;30836;48.906;9.140;2023-11-19T00:28:24;985.05;;;14.64;58.93
45071;BME280;30836;48.906;9.140;2023-11-19T00:29:24;985.05;;;14.54;59.41
45071;BME280;30836;48.906;9.140;2023-11-19T00:30:24;985.01;;;14.47;59.52
45071;BME280;30836;48.906;9.140;2023-11-19T00:31:25;985.01;;;14.39;59.97
45071;BME280;30836;48.906;9.140;2023-11-19T00:32:25;985.01;;;14.30;60.20
45071;BME280;30836;48.906;9.140;2023-11-19T00:33:26;985.03;;;14.29;59.88
45071;BME280;30836;48.906;9.140;2023-11-19T00:34:26;984.99;;;14.36;59.64
45071;BME280;30836;48.906;9.140;2023-11-19T00:35:27;985.01;;;14.43;59.33
45071;BME280;30836;48.906;9.140;2023-11-19T00:36:27;985.01;;;14.42;59.84
45071;BME280;30836;48.906;9.140;2023-11-19T00:37:28;985.03;;;14.42;59.65
45071;BME280;30836;48.906;9.140;2023-11-19T00:38:29;985.01;;;14.55;58.97
45071;BME280;30836;48.906;9.140;2023-11-19T00:39:29;985.01;;;14.71;58.34
45071;BME280;30836;48.906;9.140;2023-11-19T00:40:29;985.01;;;14.95;57.68
45071;BME280;30836;48.906;9.140;2023-11-19T00:41:30;984.99;;;15.24;56.90
45071;BME280;30836;48.906;9.140;2023-11-19T00:42:30;985.01;;;15.48;56.43
45071;BME280;30836;48.906;9.140;2023-11-19T00:43:31;985.03;;;15.67;55.88
45071;BME280;30836;48.906;9.140;2023-11-19T00:44:31;985.03;;;15.81;55.74
45071;BME280;30836;48.906;9.140;2023-11-19T00:45:32;985.01;;;15.92;55.40
45071;BME280;30836;48.906;9.140;2023-11-19T00:46:32;984.99;;;16.01;55.17
45071;BME280;30836;48.906;9.140;2023-11-19T00:47:33;984.97;;;16.06;55.12
45071;BME280;30836;48.906;9.140;2023-11-19T00:48:33;985.01;;;16.10;54.96
45071;BME280;30836;48.906;9.140;2023-11-19T00:49:33;985.01;;;16.11;55.08
45071;BME280;30836;48.906;9.140;2023-11-19T00:50:34;984.99;;;16.11;54.97
45071;BME280;30836;48.906;9.140;2023-11-19T00:51:34;984.95;;;16.13;55.03
45071;BME280;30836;48.906;9.140;2023-11-19T00:52:35;984.95;;;16.19;54.65
45071;BME280;30836;48.906;9.140;2023-11-19T00:53:35;984.95;;;16.28;54.60
45071;BME280;30836;48.906;9.140;2023-11-19T00:54:36;984.91;;;16.33;54.44
45071;BME280;30836;48.906;9.140;2023-11-19T00:55:36;984.89;;;16.32;54.32
45071;BME280;30836;48.906;9.140;2023-11-19T00:56:36;984.85;;;16.34;54.37
45071;BME280;30836;48.906;9.140;2023-11-19T00:57:37;984.83;;;16.40;54.17
45071;BME280;30836;48.906;9.140;2023-11-19T00:58:37;984.83;;;16.51;53.92
45071;BME280;30836;48.906;9.140;2023-11-19T00:59:38;984.83;;;16.59;53.75
45071;BME280;30836;48.906;9.140;2023-11-19T01:00:42;984.85;;;16.64;53.63
45071;BME280;30836;48.906;9.140;2023-11-19T01:01:42;984.85;;;16.71;53.50
45071;BME280;30836;48.906;9.140;2023-11-19T01:02:42;984.87;;;16.79;53.33
45071;BME280;30836;48.906;9.140;2023-11-19T01:03:43;984.89;;;16.85;53.27
45071;BME280;30836;48.906;9.140;2023-11-19T01:04:43;984.87;;;16.89;53.21
45071;BME280;30836;48.906;9.140;2023-11-19T01:05:44;984.85;;;16.96;52.99
45071;BME280;30836;48.906;9.140;2023-11-19T01:06:44;984.87;;;17.03;52.79
45071;BME280;30836;48.906;9.140;2023-11-19T01:07:45;984.85;;;17.11;52.59
45071;BME280;30836;48.906;9.140;2023-11-19T01:08:46;984.83;;;17.18;52.49
45071;BME280;30836;48.906;9.140;2023-11-19T01:09:46;984.79;;;17.24;52.45
45071;BME280;30836;48.906;9.140;2023-11-19T01:10:46;984.81;;;17.26;52.40
45071;BME280;30836;48.906;9.140;2023-11-19T01:11:47;984.79;;;17.24;52.65
45071;BME280;30836;48.906;9.140;2023-11-19T01:12:47;984.72;;;17.25;52.50
45071;BME280;30836;48.906;9.140;2023-11-19T01:13:48;984.72;;;17.29;52.39
45071;BME280;30836;48.906;9.140;2023-11-19T01:14:48;984.59;;;17.31;52.35
45071;BME280;30836;48.906;9.140;2023-11-19T01:15:49;984.61;;;17.30;52.44
45071;BME280;30836;48.906;9.140;2023-11-19T01:16:49;984.72;;;17.31;52.50
45071;BME280;30836;48.906;9.140;2023-11-19T01:17:50;984.70;;;17.35;52.29
45071;BME280;30836;48.906;9.140;2023-11-19T01:18:50;984.74;;;17.32;52.81
45071;BME280;30836;48.906;9.140;2023-11-19T01:19:51;984.76;;;17.17;53.28
45071;BME280;30836;48.906;9.140;2023-11-19T01:20:51;984.70;;;17.00;53.76
45071;BME280;30836;48.906;9.140;2023-11-19T01:21:52;984.57;;;16.83;54.26
45071;BME280;30836;48.906;9.140;2023-11-19T01:22:52;984.57;;;16.71;54.37
45071;BME280;30836;48.906;9.140;2023-11-19T01:23:52;984.59;;;16.62;54.53
45071;BME280;30836;48.906;9.140;2023-11-19T01:24:53;984.70;;;16.55;54.89
45071;BME280;30836;48.906;9.140;2023-11-19T01:25:53;984.61;;;16.48;55.01
45071;BME280;30836;48.906;9.140;2023-11-19T01:26:54;984.70;;;16.42;55.22
45071;BME280;30836;48.906;9.140;2023-11-19T01:27:54;984.70;;;16.35;55.40
45071;BME280;30836;48.906;9.140;2023-11-19T01:28:54;984.72;;;16.29;55.61
45071;BME280;30836;48.906;9.140;2023-11-19T01:29:55;984.61;;;16.24;55.86
45071;BME280;30836;48.906;9.140;2023-11-19T01:30:55;984.61;;;16.19;56.05
45071;BME280;30836;48.906;9.140;2023-11-19T01:31:56;984.70;;;16.18;56.05
45071;BME280;30836;48.906;9.140;2023-11-19T01:32:56;984.70;;;16.14;56.44
45071;BME280;30836;48.906;9.140;2023-11-19T01:33:57;984.61;;;16.09;56.49
45071;BME280;30836;48.906;9.140;2023-11-19T01:34:57;984.61;;;16.06;56.67
45071;BME280;30836;48.906;9.140;2023-11-19T01:35:58;984.59;;;16.04;56.67
45071;BME280;30836;48.906;9.140;2023-11-19T01:36:58;984.57;;;16.05;56.60
45071;BME280;30836;48.906;9.140;2023-11-19T01:37:58;984.52;;;16.06;56.75
45071;BME280;30836;48.906;9.140;2023-11-19T01:38:59;984.54;;;16.08;56.57
45071;BME280;30836;48.906;9.140;2023-11-19T01:39:59;984.52;;;16.09;56.70
45071;BME280;30836;48.906;9.140;2023-11-19T01:41:00;984.55;;;16.07;56.84
45071;BME280;30836;48.906;9.140;2023-11-19T01:42:01;984.57;;;16.09;56.76
45071;BME280;30836;48.906;9.140;2023-11-19T01:43:02;984.57;;;16.14;56.65
45071;BME280;30836;48.906;9.140;2023-11-19T01:44:03;984.54;;;16.19;56.47
45071;BME280;30836;48.906;9.140;2023-11-19T01:45:03;984.57;;;16.25;56.38
45071;BME280;30836;48.906;9.140;2023-11-19T01:46:05;984.54;;;16.31;56.27
45071;BME280;30836;48.906;9.140;2023-11-19T01:47:06;984.54;;;16.39;55.89
45071;BME280;30836;48.906;9.140;2023-11-19T01:48:08;984.54;;;16.45;55.94
45071;BME280;30836;48.906;9.140;2023-11-19T01:49:08;984.52;;;16.46;56.03
45071;BME280;30836;48.906;9.140;2023-11-19T01:50:09;984.54;;;16.45;55.99
45071;BME280;30836;48.906;9.140;2023-11-19T01:51:10;984.54;;;16.43;56.18
45071;BME280;30836;48.906;9.140;2023-11-19T01:52:11;984.54;;;16.42;56.23
45071;BME280;30836;48.906;9.140;2023-11-19T01:53:11;984.54;;;16.43;56.14
45071;BME280;30836;48.906;9.140;2023-11-19T01:54:12;984.54;;;16.40;56.53
45071;BME280;30836;48.906;9.140;2023-11-19T01:55:13;984.50;;;16.37;56.50
45071;BME280;30836;48.906;9.140;2023-11-19T01:56:14;984.52;;;16.36;56.64
45071;BME280;30836;48.906;9.140;2023-11-19T01:57:15;984.54;;;16.36;56.56
45071;BME280;30836;48.906;9.140;2023-11-19T01:58:16;984.50;;;16.37;56.59
45071;BME280;30836;48.906;9.140;2023-11-19T01:59:17;984.50;;;16.36;56.61
45071;BME280;30836;48.906;9.140;2023-11-19T02:00:17;984.50;;;16.36;56.62
45071;BME280;30836;48.906;9.140;2023-11-19T02:01:19;984.54;;;16.37;56.57
45071;BME280;30836;48.906;9.140;2023-11-19T02:02:19;984.52;;;16.40;56.56
45071;BME280;30836;48.906;9.140;2023-11-19T02:03:20;984.52;;;16.43;56.50
45071;BME280;30836;48.906;9.140;2023-11-19T02:04:21;984.52;;;16.46;56.52
45071;BME280;30836;48.906;9.140;2023-11-19T02:05:22;984.52;;;16.46;56.50
45071;BME280;30836;48.906;9.140;2023-11-19T02:06:22;984.52;;;16.46;56.53
45071;BME280;30836;48.906;9.140;2023-11-19T02:07:23;984.52;;;16.47;56.49
45071;BME280;30836;48.906;9.140;2023-11-19T02:08:24;984.50;;;16.48;56.47
45071;BME280;30836;48.906;9.140;2023-11-19T02:09:25;984.50;;;16.49;56.41
45071;BME280;30836;48.906;9.140;2023-11-19T02:10:25;984.48;;;16.51;56.38
45071;BME280;30836;48.906;9.140;2023-11-19T02:11:26;984.44;;;16.54;56.28
45071;BME280;30836;48.906;9.140;2023-11-19T02:12:28;984.42;;;16.58;56.26
45071;BME280;30836;48.906;9.140;2023-11-19T02:13:28;984.44;;;16.63;56.08
45071;BME280;30836;48.906;9.140;2023-11-19T02:14:29;984.44;;;16.68;55.98
45071;BME280;30836;48.906;9.140;2023-11-19T02:15:29;984.44;;;16.72;55.86
45071;BME280;30836;48.906;9.140;2023-11-19T02:16:31;984.44;;;16.75;55.87
45071;BME280;30836;48.906;9.140;2023-11-19T02:17:31;984.44;;;16.77;55.89
45071;BME280;30836;48.906;9.140;2023-11-19T02:18:32;984.42;;;16.80;55.81
45071;BME280;30836;48.906;9.140;2023-11-19T02:19:32;984.40;;;16.84;55.72
45071;BME280;30836;48.906;9.140;2023-11-19T02:20:32;984.40;;;16.89;55.64
45071;BME280;30836;48.906;9.140;2023-11-19T02:21:33;984.40;;;16.94;55.55
45071;BME280;30836;48.906;9.140;2023-11-19T02:22:33;984.38;;;16.98;55.56
45071;BME280;30836;48.906;9.140;2023-11-19T02:23:34;984.36;;;16.99;55.43
45071;BME280;30836;48.906;9.140;2023-11-19T02:24:34;984.34;;;16.98;55.60
45071;BME280;30836;48.906;9.140;2023-11-19T02:25:35;984.34;;;16.99;55.57
45071;BME280;30836;48.906;9.140;2023-11-19T02:27:48;984.36;;;17.17;54.78
45071;BME280;30836;48.906;9.140;2023-11-19T02:28:56;984.40;;;17.35;54.28
45071;BME280;30836;48.906;9.140;2023-11-19T02:29:56;984.40;;;17.52;53.95
45071;BME280;30836;48.906;9.140;2023-11-19T02:30:57;984.36;;;17.65;53.73
45071;BME280;30836;48.906;9.140;2023-11-19T02:31:57;984.38;;;17.76;53.43
45071;BME280;30836;48.906;9.140;2023-11-19T02:32:58;984.40;;;17.86;53.32
45071;BME280;30836;48.906;9.140;2023-11-19T02:33:59;984.40;;;17.95;53.17
45071;BME280;30836;48.906;9.140;2023-11-19T02:35:00;984.40;;;18.00;53.15
45071;BME280;30836;48.906;9.140;2023-11-19T02:36:00;984.38;;;18.07;52.93
45071;BME280;30836;48.906;9.140;2023-11-19T02:37:00;984.40;;;18.13;52.74
45071;BME280;30836;48.906;9.140;2023-11-19T02:38:01;984.40;;;18.19;52.71
45071;BME280;30836;48.906;9.140;2023-11-19T02:39:01;984.40;;;18.26;52.54
45071;BME280;30836;48.906;9.140;2023-11-19T02:40:02;984.40;;;18.31;52.40
45071;BME280;30836;48.906;9.140;2023-11-19T02:41:03;984.40;;;18.36;52.31
45071;BME280;30836;48.906;9.140;2023-11-19T02:42:04;984.42;;;18.41;52.24
45071;BME280;30836;48.906;9.140;2023-11-19T02:43:04;984.40;;;18.47;52.11
45071;BME280;30836;48.906;9.140;2023-11-19T02:44:05;984.40;;;18.52;51.99
45071;BME280;30836;48.906;9.140;2023-11-19T02:45:07;984.38;;;18.57;51.86
45071;BME280;30836;48.906;9.140;2023-11-19T02:46:08;984.34;;;18.63;51.74
45071;BME280;30836;48.906;9.140;2023-11-19T02:47:08;984.34;;;18.68;51.60
45071;BME280;30836;48.906;9.140;2023-11-19T02:48:08;984.38;;;18.73;51.52
45071;BME280;30836;48.906;9.140;2023-11-19T02:49:09;984.38;;;18.77;51.49
45071;BME280;30836;48.906;9.140;2023-11-19T02:50:10;984.40;;;18.81;51.38
45071;BME280;30836;48.906;9.140;2023-11-19T02:50:25;984.38;;;18.85;51.36
45071;BME280;30836;48.906;9.140;2023-11-19T02:51:25;984.38;;;18.86;51.35
45071;BME280;30836;48.906;9.140;2023-11-19T02:52:25;984.38;;;18.81;51.65
45071;BME280;30836;48.906;9.140;2023-11-19T02:53:26;984.40;;;18.71;52.01
45071;BME280;30836;48.906;9.140;2023-11-19T02:54:26;984.40;;;18.59;52.30
45071;BME280;30836;48.906;9.140;2023-11-19T02:55:27;984.40;;;18.48;52.54
45071;BME280;30836;48.906;9.140;2023-11-19T02:56:27;984.42;;;18.38;52.71
45071;BME280;30836;48.906;9.140;2023-11-19T02:57:30;984.42;;;18.30;52.88
45071;BME280;30836;48.906;9.140;2023-11-19T02:58:31;984.44;;;18.24;53.01
45071;BME280;30836;48.906;9.140;2023-11-19T02:59:32;984.44;;;18.19;53.11
45071;BME280;30836;48.906;9.140;2023-11-19T03:00:32;984.46;;;18.14;53.18
45071;BME280;30836;48.906;9.140;2023-11-19T03:01:33;984.48;;;18.10;53.32
45071;BME280;30836;48.906;9.140;2023-11-19T03:02:33;984.48;;;18.07;53.31
45071;BME280;30836;48.906;9.140;2023-11-19T03:03:34;984.52;;;18.03;53.22
45071;BME280;30836;48.906;9.140;2023-11-19T03:04:34;984.52;;;17.99;53.28
45071;BME280;30836;48.906;9.140;2023-11-19T03:05:35;984.52;;;17.94;53.30
45071;BME280;30836;48.906;9.140;2023-11-19T03:06:35;984.50;;;17.90;53.34
45071;BME280;30836;48.906;9.140;2023-11-19T03:07:36;984.46;;;17.85;53.40
45071;BME280;30836;48.906;9.140;2023-11-19T03:08:36;984.44;;;17.81;53.49
45071;BME280;30836;48.906;9.140;2023-11-19T03:09:37;984.38;;;17.77;53.54
45071;BME280;30836;48.906;9.140;2023-11-19T03:10:37;984.34;;;17.73;53.57
45071;BME280;30836;48.906;9.140;2023-11-19T03:11:38;984.32;;;17.69;53.61
45071;BME280;30836;48.906;9.140;2023-11-19T03:12:38;984.34;;;17.65;53.58
45071;BME280;30836;48.906;9.140;2023-11-19T03:13:40;984.36;;;17.61;53.51
45071;BME280;30836;48.906;9.140;2023-11-19T03:14:40;984.32;;;17.58;53.35
45071;BME280;30836;48.906;9.140;2023-11-19T03:15:41;984.34;;;17.53;53.40
45071;BME280;30836;48.906;9.140;2023-11-19T03:16:41;984.36;;;17.49;53.43
45071;BME280;30836;48.906;9.140;2023-11-19T03:17:45;984.38;;;17.45;53.31
45071;BME280;30836;48.906;9.140;2023-11-19T03:18:45;984.34;;;17.42;53.36
45071;BME280;30836;48.906;9.140;2023-11-19T03:19:46;984.34;;;17.40;53.32
45071;BME280;30836;48.906;9.140;2023-11-19T03:20:46;984.34;;;17.38;53.39
45071;BME280;30836;48.906;9.140;2023-11-19T03:21:47;984.40;;;17.36;53.38
45071;BME280;30836;48.906;9.140;2023-11-19T03:22:47;984.42;;;17.35;53.37
45071;BME280;30836;48.906;9.140;2023-11-19T03:23:48;984.42;;;17.34;53.30
45071;BME280;30836;48.906;9.140;2023-11-19T03:24:50;984.40;;;17.32;53.30
45071;BME280;30836;48.906;9.140;2023-11-19T03:25:51;984.28;;;17.32;53.24
45071;BME280;30836;48.906;9.140;2023-11-19T03:26:51;984.24;;;17.31;53.27
45071;BME280;30836;48.906;9.140;2023-11-19T03:27:52;984.16;;;17.29;53.32
45071;BME280;30836;48.906;9.140;2023-11-19T03:28:53;984.16;;;17.28;53.38
45071;BME280;30836;48.906;9.140;2023-11-19T03:29:53;984.14;;;17.27;53.42
45071;BME280;30836;48.906;9.140;2023-11-19T03:30:54;984.16;;;17.27;53.53
45071;BME280;30836;48.906;9.140;2023-11-19T03:31:54;984.18;;;17.26;53.57
45071;BME280;30836;48.906;9.140;2023-11-19T03:32:55;984.14;;;17.26;53.53
45071;BME280;30836;48.906;9.140;2023-11-19T03:33:59;984.14;;;17.25;53.44
45071;BME280;30836;48.906;9.140;2023-11-19T03:34:59;984.16;;;17.24;53.49
45071;BME280;30836;48.906;9.140;2023-11-19T03:35:59;984.16;;;17.22;53.64
45071;BME280;30836;48.906;9.140;2023-11-19T03:37:00;984.14;;;17.21;53.76
45071;BME280;30836;48.906;9.140;2023-11-19T03:38:00;984.14;;;17.20;53.74
45071;BME280;30836;48.906;9.140;2023-11-19T03:39:01;984.10;;;17.20;53.78
45071;BME280;30836;48.906;9.140;2023-11-19T03:40:01;984.10;;;17.20;53.84
45071;BME280;30836;48.906;9.140;2023-11-19T03:41:09;984.10;;;17.20;53.94
45071;BME280;30836;48.906;9.140;2023-11-19T03:42:11;984.05;;;17.24;53.84
45071;BME280;30836;48.906;9.140;2023-11-19T03:43:11;984.03;;;17.36;53.32
45071;BME280;30836;48.906;9.140;2023-11-19T03:44:11;984.07;;;17.52;52.96
45071;BME280;30836;48.906;9.140;2023-11-19T03:45:12;984.07;;;17.68;52.64
45071;BME280;30836;48.906;9.140;2023-11-19T03:46:18;984.05;;;17.83;52.42
45071;BME280;30836;48.906;9.140;2023-11-19T03:47:19;984.07;;;17.97;52.13
45071;BME280;30836;48.906;9.140;2023-11-19T03:48:20;984.08;;;18.09;51.89
45071;BME280;30836;48.906;9.140;2023-11-19T03:49:20;984.08;;;18.19;51.69
45071;BME280;30836;48.906;9.140;2023-11-19T03:50:21;984.10;;;18.26;51.62
45071;BME280;30836;48.906;9.140;2023-11-19T03:51:21;984.07;;;18.32;51.56
45071;BME280;30836;48.906;9.140;2023-11-19T03:52:22;984.01;;;18.36;51.57
45071;BME280;30836;48.906;9.140;2023-11-19T03:53:22;983.95;;;18.39;51.54
45071;BME280;30836;48.906;9.140;2023-11-19T03:54:22;983.93;;;18.41;51.56
45071;BME280;30836;48.906;9.140;2023-11-19T03:55:23;983.91;;;18.45;51.51
45071;BME280;30836;48.906;9.140;2023-11-19T03:56:23;983.89;;;18.49;51.56
45071;BME280;30836;48.906;9.140;2023-11-19T03:57:24;983.85;;;18.51;51.56
45071;BME280;30836;48.906;9.140;2023-11-19T03:58:24;983.87;;;18.55;51.52
45071;BME280;30836;48.906;9.140;2023-11-19T03:59:25;983.85;;;18.58;51.49
45071;BME280;30836;48.906;9.140;2023-11-19T04:00:25;983.85;;;18.62;51.48
45071;BME280;30836;48.906;9.140;2023-11-19T04:01:26;983.83;;;18.65;51.41
45071;BME280;30836;48.906;9.140;2023-11-19T04:02:26;983.87;;;18.67;51.44
45071;BME280;30836;48.906;9.140;2023-11-19T04:03:26;983.87;;;18.69;51.44
45071;BME280;30836;48.906;9.140;2023-11-19T04:04:27;983.83;;;18.72;51.41
45071;BME280;30836;48.906;9.140;2023-11-19T04:05:27;983.83;;;18.74;51.34
45071;BME280;30836;48.906;9.140;2023-11-19T04:06:28;983.83;;;18.76;51.33
45071;BME280;30836;48.906;9.140;2023-11-19T04:07:28;983.87;;;18.77;51.34
45071;BME280;30836;48.906;9.140;2023-11-19T04:08:29;983.89;;;18.78;51.34
45071;BME280;30836;48.906;9.140;2023-11-19T04:09:29;983.89;;;18.80;51.36
45071;BME280;30836;48.906;9.140;2023-11-19T04:10:29;983.91;;;18.82;51.35
45071;BME280;30836;48.906;9.140;2023-11-19T04:11:30;983.95;;;18.84;51.33
45071;BME280;30836;48.906;9.140;2023-11-19T04:12:30;983.97;;;18.87;51.34
45071;BME280;30836;48.906;9.140;2023-11-19T04:13:31;983.93;;;18.91;51.29
45071;BME280;30836;48.906;9.140;2023-11-19T04:14:31;983.91;;;18.93;51.23
45071;BME280;30836;48.906;9.140;2023-11-19T04:15:31;983.95;;;18.96;51.19
45071;BME280;30836;48.906;9.140;2023-11-19T04:16:32;983.91;;;18.98;51.16
45071;BME280;30836;48.906;9.140;2023-11-19T04:17:32;983.89;;;19.01;51.08
45071;BME280;30836;48.906;9.140;2023-11-19T04:18:33;983.93;;;18.99;51.22
45071;BME280;30836;48.906;9.140;2023-11-19T04:19:33;983.95;;;18.90;51.64
45071;BME280;30836;48.906;9.140;2023-11-19T04:20:34;983.91;;;18.78;51.99
45071;BME280;30836;48.906;9.140;2023-11-19T04:21:34;983.87;;;18.65;52.26
45071;BME280;30836;48.906;9.140;2023-11-19T04:22:34;983.87;;;18.54;52.48
45071;BME280;30836;48.906;9.140;2023-11-19T04:23:35;983.89;;;18.45;52.63
45071;BME280;30836;48.906;9.140;2023-11-19T04:24:35;983.89;;;18.38;52.81
45071;BME280;30836;48.906;9.140;2023-11-19T04:25:36;983.91;;;18.31;52.92
45071;BME280;30836;48.906;9.140;2023-11-19T04:26:39;983.91;;;18.25;53.10
45071;BME280;30836;48.906;9.140;2023-11-19T04:27:45;983.91;;;18.21;53.14
45071;BME280;30836;48.906;9.140;2023-11-19T04:28:45;983.91;;;18.19;53.33
45071;BME280;30836;48.906;9.140;2023-11-19T04:29:46;983.89;;;18.14;53.44
45071;BME280;30836;48.906;9.140;2023-11-19T04:30:46;983.89;;;18.09;53.65
45071;BME280;30836;48.906;9.140;2023-11-19T04:31:46;983.89;;;18.04;53.75
45071;BME280;30836;48.906;9.140;2023-11-19T04:32:47;983.87;;;17.99;53.96
45071;BME280;30836;48.906;9.140;2023-11-19T04:33:47;983.87;;;17.94;54.12
45071;BME280;30836;48.906;9.140;2023-11-19T04:34:48;983.87;;;17.90;54.19
45071;BME280;30836;48.906;9.140;2023-11-19T04:35:48;983.83;;;17.86;54.33
45071;BME280;30836;48.906;9.140;2023-11-19T04:36:48;983.81;;;17.83;54.49
45071;BME280;30836;48.906;9.140;2023-11-19T04:37:49;983.81;;;17.81;54.54
45071;BME280;30836;48.906;9.140;2023-11-19T04:38:49;983.83;;;17.80;54.57
45071;BME280;30836;48.906;9.140;2023-11-19T04:39:50;983.85;;;17.79;54.60
45071;BME280;30836;48.906;9.140;2023-11-19T04:40:50;983.87;;;17.77;54.71
45071;BME280;30836;48.906;9.140;2023-11-19T04:41:51;983.87;;;17.75;54.76
45071;BME280;30836;48.906;9.140;2023-11-19T04:42:52;983.87;;;17.74;54.74
45071;BME280;30836;48.906;9.140;2023-11-19T04:43:52;983.83;;;17.72;54.81
45071;BME280;30836;48.906;9.140;2023-11-19T04:44:53;983.85;;;17.71;54.89
45071;BME280;30836;48.906;9.140;2023-11-19T04:45:53;983.81;;;17.70;54.96
45071;BME280;30836;48.906;9.140;2023-11-19T04:46:53;983.83;;;17.70;55.02
45071;BME280;30836;48.906;9.140;2023-11-19T04:47:54;983.85;;;17.71;54.90
45071;BME280;30836;48.906;9.140;2023-11-19T04:48:54;983.93;;;17.72;54.97
45071;BME280;30836;48.906;9.140;2023-11-19T04:49:55;983.89;;;17.72;55.08
45071;BME280;30836;48.906;9.140;2023-11-19T04:50:55;983.91;;;17.71;55.11
45071;BME280;30836;48.906;9.140;2023-11-19T04:51:55;983.89;;;17.70;55.33
45071;BME280;30836;48.906;9.140;2023-11-19T04:52:56;983.87;;;17.68;55.29
45071;BME280;30836;48.906;9.140;2023-11-19T04:53:56;983.87;;;17.68;55.39
45071;BME280;30836;48.906;9.140;2023-11-19T04:54:57;983.87;;;17.66;55.50
45071;BME280;30836;48.906;9.140;2023-11-19T04:55:57;983.89;;;17.64;55.55
45071;BME280;30836;48.906;9.140;2023-11-19T04:56:58;983.91;;;17.64;55.59
45071;BME280;30836;48.906;9.140;2023-11-19T04:57:58;983.93;;;17.63;55.60
45071;BME280;30836;48.906;9.140;2023-11-19T04:58:58;983.93;;;17.62;55.55
45071;BME280;30836;48.906;9.140;2023-11-19T04:59:59;983.95;;;17.63;55.65
45071;BME280;30836;48.906;9.140;2023-11-19T05:00:59;983.91;;;17.63;55.61
45071;BME280;30836;48.906;9.140;2023-11-19T05:02:00;983.91;;;17.65;55.62
45071;BME280;30836;48.906;9.140;2023-11-19T05:03:00;983.89;;;17.65;55.57
45071;BME280;30836;48.906;9.140;2023-11-19T05:04:01;983.89;;;17.64;55.59
45071;BME280;30836;48.906;9.140;2023-11-19T05:05:02;983.91;;;17.62;55.67
45071;BME280;30836;48.906;9.140;2023-11-19T05:06:03;983.89;;;17.61;55.68
45071;BME280;30836;48.906;9.140;2023-11-19T05:07:04;983.87;;;17.63;55.66
45071;BME280;30836;48.906;9.140;2023-11-19T05:08:04;983.89;;;17.73;55.18
45071;BME280;30836;48.906;9.140;2023-11-19T05:09:05;983.89;;;17.90;54.72
45071;BME280;30836;48.906;9.140;2023-11-19T05:10:05;983.89;;;18.08;54.34
45071;BME280;30836;48.906;9.140;2023-11-19T05:11:06;983.89;;;18.25;53.98
45071;BME280;30836;48.906;9.140;2023-11-19T05:12:06;983.91;;;18.39;53.74
45071;BME280;30836;48.906;9.140;2023-11-19T05:13:07;983.89;;;18.51;53.50
45071;BME280;30836;48.906;9.140;2023-11-19T05:14:07;983.89;;;18.62;53.18
45071;BME280;30836;48.906;9.140;2023-11-19T05:15:08;983.93;;;18.71;53.08
45071;BME280;30836;48.906;9.140;2023-11-19T05:16:08;983.93;;;18.77;52.92
45071;BME280;30836;48.906;9.140;2023-11-19T05:17:09;983.97;;;18.82;52.85
45071;BME280;30836;48.906;9.140;2023-11-19T05:18:09;983.97;;;18.89;52.68
45071;BME280;30836;48.906;9.140;2023-11-19T05:19:10;983.97;;;18.94;52.56
45071;BME280;30836;48.906;9.140;2023-11-19T05:20:10;983.93;;;18.98;52.47
45071;BME280;30836;48.906;9.140;2023-11-19T05:21:10;983.97;;;19.01;52.38
45071;BME280;30836;48.906;9.140;2023-11-19T05:22:11;983.99;;;19.02;52.31
45071;BME280;30836;48.906;9.140;2023-11-19T05:23:11;984.01;;;19.03;52.45
45071;BME280;30836;48.906;9.140;2023-11-19T05:24:12;983.99;;;19.05;52.43
45071;BME280;30836;48.906;9.140;2023-11-19T05:25:12;983.99;;;19.08;52.30
45071;BME280;30836;48.906;9.140;2023-11-19T05:27:19;983.97;;;19.12;52.23
45071;BME280;30836;48.906;9.140;2023-11-19T05:28:19;983.97;;;19.13;52.18
45071;BME280;30836;48.906;9.140;2023-11-19T05:29:20;983.97;;;19.16;52.05
45071;BME280;30836;48.906;9.140;2023-11-19T05:30:20;983.95;;;19.19;51.84
45071;BME280;30836;48.906;9.140;2023-11-19T05:31:21;983.99;;;19.22;51.86